Detall de PIREP

Printer-friendly versionPDF version

[2012/03/03 18:28:00]
Flight IATA:CT1006
Pilot Number:042
Company ICAO:CAT
Aircraft Type:B738/F
PAX:150
Departing Airport: LFMP
Destination Airport: LEAL
Alternate Airport:LEMD
Online: VATSIM
Route:BGR UN855 POS UL129 MJV UN851 BRUNO
Flight Level:F350
No Slew and time accel
No pause
Crash detect
Detect pilot in Cockpit between each 30 and 45 minutes
18:28 Zero fuel Weight: 91300 Lbs, Fuel Weight: 46058 Lbs
18:28 VATSIM:LFMP 031800Z 31019KT 9999 BKN100 15/06 Q1024 NOSIG
18:28 VATSIM:LEAL 031800Z 29009KT 9999 FEW040 19/04 Q1026 NOSIG
18:28 VOICE CATALONIAN/ALMOGAVERS ROUTE
18:31 Parking Brakes off
18:36 Take-off
18:36 Take off Weight: 136796 Lbs
18:36 Wind: 312º @ 019 Knots Heading: 325º
18:36 POS N42º 44´ 56´´ E002º 51´ 56´´
18:36 Gear Up: 175 Knots
18:36 Flaps:4 at 175 Knots
18:37 Flaps:3 at 175 Knots
18:37 Flaps:2 at 162 Knots
18:38 Flaps:1 at 198 Knots
18:38 Flaps:0 at 221 Knots
18:51 Wind:258º@013 Knots Heading: 183º Ground Speed: 457 Knots Altitude 30958 ft
18:53 TOC
18:53 Fuel Weight: 42011 Lb
19:06 Wind:260º@000 Knots Heading: 209º Ground Speed: 450 Knots Altitude 35377 ft
19:10 TOD
19:10 Fuel Weight: 40478 Lb
19:21 Wind:251º@001 Knots Heading: 248º Ground Speed: 399 Knots Altitude 28225 ft
19:36 Wind:251º@000 Knots Heading: 275º Ground Speed: 236 Knots Altitude 5337 ft
19:36 Flaps:1 at 218 Knots
19:37 Flaps:2 at 208 Knots
19:37 Flaps:3 at 197 Knots
19:38 Flaps:4 at 189 Knots
19:42 Flaps:5 at 173 Knots
19:42 Gear Down: 173 Knots
19:42 Flaps:7 at 173 Knots
19:42 Flaps:8 at 167 Knots
19:46 TouchDown:Rate -306 ft/min Speed: 121 Knots
19:46 VATSIM:LEAL 031930Z 21006KT 9999 FEW040 15/05 Q1027 NOSIG
19:46 Land
19:46 Wind:255º@001 Knots
19:46 Heading: 102º
19:46 Flight Duration: 01:10
19:46 Landing Weight: 129636 Lbs
19:46 POS N38º 16´ 53´´ W000º 33´ 16´´
19:49 Parking brakes on
19:49 Block to Block Duration: 01:18
19:49 Final Fuel: 37993 Lbls
19:49 Spent Fuel: 8064 Lbls
19:49 Flight Length: 425 NM
19:49 TOD Land Length: 190 NM

Exportar CSV

Powered by Drupal - Modified by Danger4k